Ames, South Dakota
Current Conditions -  °F | °C
As of 3:53 AM on Thursday 27 Nov 2014 (Local Time) from KPIR Reporting Station
Overcast Overcast  
Wind Chill: -4°   Ceiling: 2900
Heat Index: 10°   Visibility: 10mi
Dew Point:   Wind: 10mph
Humidity: 87%   Direction: 110°ESE
Pressure: 30.4"   Gusts: NA
Location:  44.3693°N, 100.04°W
Report Text: KPIR 270953Z AUTO 11009KT 10SM FEW007 BKN029 OVC060 M12/M14 A3040 RMK AO2 SLP328 T11221139
Loading
Personal Weather Stations






























Interactive Weather Map New forecast layout! Learn more

10-Day Weather Forecast

Advertisements
Track Severe Weather on mobile